Tropical Cyclones
[Index]
Main Index Home Page Stock Weather Photos Extreme Storms Discussion Storm News and Storm Chasing Reports Tropical Cyclones / Hurricanes / Typhoons Weather Data and Links Wild Fires / Bushfires Weather Observation Techniques Weather Picture Catalogue Tornado Pictures and Reports Stock Video Footage and DVDs for sale
Season 1982-1983 Tropical Cyclone LISA Track Map
Season 1982-1983 Summaries: [BoM-AU] [JTWC-AU] [JTWC-SIO] [JTWC-SPAC] [JTWC-SH]
<<- Previous TC | JTWC 1982-1983 Season | Next TC ->>

click for intensity scale information  Lat/long Grid: Show Hide

 Date Labels: Show Hide

Joint Typhoon Warning Centre Cyclone Data

Name: LISA

10 Dec 1982 00:00 UTC to 16 Dec 1982 00:00 UTC

    date/time    lat    long     hPa   cat  kts
1982-12-10 00    9.0   160.0W                 25          
1982-12-10 06    9.0   159.7W                 25          
1982-12-10 12    9.2   159.3W                 25          
1982-12-10 18    9.5   158.9W                 30          
1982-12-11 00   10.2   158.3W                 30          
1982-12-11 06   11.5   157.3W                 35          
1982-12-11 12   12.8   156.3W                 35          
1982-12-11 18   14.1   155.3W           1     40          
1982-12-12 00   15.2   154.4W           1     40          
1982-12-12 06   15.9   153.4W           1     45          
1982-12-12 12   16.4   152.4W           1     45          
1982-12-12 18   17.2   152.0W           1     50          
1982-12-13 00   18.1   152.4W           1     50          
1982-12-13 06   19.2   153.5W           1     50          
1982-12-13 12   20.2   154.5W           1     50          
1982-12-13 18   20.4   154.8W           2     55          
1982-12-14 00   20.5   155.1W           2     55          
1982-12-14 06   21.3   155.3W           1     50          
1982-12-14 12   22.0   155.4W           1     50          
1982-12-14 18   22.5   155.1W           1     45          
1982-12-15 00   22.9   154.8W           1     45          
1982-12-15 06   23.2   154.6W           1     40          
1982-12-15 12   23.5   154.4W           1     40          
1982-12-15 18   23.7   154.2W                 35          
1982-12-16 00   23.9   153.9W                 35          
Winds are 1-min average.

Tropical cyclone tracks developed by Michael Bath using data from the Joint Typhoon Warning Centre Best Tracks and Google Maps.


[Australian Severe Weather index] [Copyright Notice] [Email Contacts] [Search This Site] [Privacy Policy]
Document: tropical_cyclone_lisa.htm Updated: 18 September 2016